Flushing, NY (11351)

2:11 PM EDT on August 29, 2015 (GMT -0400)
Cedar Grove Cemetery, Flushing | | Change Station
CLOSE
Current Station
Personal Weather Station
Location: New York, NY
Elevation: 49 ft
Nearby Weather Stations

Elev 49 ft 40.74 °N, 73.83 °W | Updated 2 minutes ago

Mostly Cloudy
Mostly Cloudy
83.3 °F
Feels Like 83 °F
N
1.7
Wind Variable Wind from NNW

Today
High -- | Low -- °F
--% Chance of Precip.
Yesterday
High -- | Low -- °F
Precip. -- in
6:19 AM 7:32 PM
Full, 100% visible
Pressure 30.15 in
Visibility 10.0 miles
Clouds Scattered Clouds 6500 ft
Mostly Cloudy 25000 ft
Heat Index 83 °F
Dew Point 57 °F
Humidity 41%
Rainfall 0.00 in
Snow Depth Not available.
UV 5 out of 12
Pollen 10.00 out of 12
Air Quality Not available.
Flu Activity Not available.
METAR KLGA 291751Z COR 25004KT 10SM SCT065 BKN250 28/11 A3015 RMK AO2 SLP210 T02780106 10289 20228 58016
Pressure 30.15 in
Visibility 10.0 miles
Clouds Scattered Clouds 6500 ft
Mostly Cloudy 25000 ft
Heat Index 83 °F
Dew Point 57 °F
Humidity 41%
Rainfall 0.00 in
Snow Depth Not available.
UV 5 out of 12
Pollen 10.00 out of 12
Air Quality Not available.
Flu Activity Not available.
METAR KLGA 291751Z COR 25004KT 10SM SCT065 BKN250 28/11 A3015 RMK AO2 SLP210 T02780106 10289 20228 58016

10-Day Weather Forecast

×

Almanac

Astronomy

Aug. 29, 2015 Rise Set
Actual Time
Civil Twilight
Nautical Twilight
Astronomical Twilight
Moon
Length of Visible Light
Length of Day
Tomorrow will be .
, % of the Moon is Illuminated

Today's Extremes

State Highs State Lows

Community

WunderPhotos

Upload Photos

1,850,752 photos uploaded!

WunderBlogs® & News

Nearby

Air Quality

  Air Quality AQ Index Pollutant
Not available.

Snow Depth

Station Depth Elevation

Earthquake Activity

City Distance Mag. Time & Date
Minimum magnitude displayed is 2.5.

Coastal Water Temperatures

Place Temperature

Stations

Nearby Weather Stations

Station Location Temp. Windchill Dew Point Humidity Wind Precip. Elev Updated Type